sensor_id;sensor_type;location;lat;lon;timestamp;P1;durP1;ratioP1;P2;durP2;ratioP2
70122;SDS011;57489;37.404;24.920;2024-02-26T00:02:40;9.33;;;4.77;;
70122;SDS011;57489;37.404;24.920;2024-02-26T00:07:43;5.00;;;3.50;;
70122;SDS011;57489;37.404;24.920;2024-02-26T00:12:45;6.57;;;4.18;;
70122;SDS011;57489;37.404;24.920;2024-02-26T00:17:47;5.83;;;3.90;;
70122;SDS011;57489;37.404;24.920;2024-02-26T00:22:50;5.33;;;3.30;;
70122;SDS011;57489;37.404;24.920;2024-02-26T00:27:52;6.32;;;3.95;;
70122;SDS011;57489;37.404;24.920;2024-02-26T00:32:54;5.77;;;3.17;;
70122;SDS011;57489;37.404;24.920;2024-02-26T00:37:57;5.13;;;3.53;;
70122;SDS011;57489;37.404;24.920;2024-02-26T00:43:01;6.13;;;3.97;;
70122;SDS011;57489;37.404;24.920;2024-02-26T00:48:03;6.57;;;3.17;;
70122;SDS011;57489;37.404;24.920;2024-02-26T00:53:07;5.00;;;2.70;;
70122;SDS011;57489;37.404;24.920;2024-02-26T00:58:09;5.55;;;3.03;;
70122;SDS011;57489;37.404;24.920;2024-02-26T01:03:11;6.37;;;3.20;;
70122;SDS011;57489;37.404;24.920;2024-02-26T01:08:14;4.17;;;2.30;;
70122;SDS011;57489;37.404;24.920;2024-02-26T01:13:16;4.65;;;2.95;;
70122;SDS011;57489;37.404;24.920;2024-02-26T01:18:18;5.27;;;2.87;;
70122;SDS011;57489;37.404;24.920;2024-02-26T01:23:21;5.43;;;3.13;;
70122;SDS011;57489;37.404;24.920;2024-02-26T01:28:23;6.22;;;3.60;;
70122;SDS011;57489;37.404;24.920;2024-02-26T01:33:25;5.43;;;3.90;;
70122;SDS011;57489;37.404;24.920;2024-02-26T01:38:29;4.68;;;2.35;;
70122;SDS011;57489;37.404;24.920;2024-02-26T01:43:31;4.93;;;2.85;;
70122;SDS011;57489;37.404;24.920;2024-02-26T01:48:33;5.80;;;3.57;;
70122;SDS011;57489;37.404;24.920;2024-02-26T01:53:36;2.85;;;2.15;;
70122;SDS011;57489;37.404;24.920;2024-02-26T01:58:38;3.17;;;1.85;;
70122;SDS011;57489;37.404;24.920;2024-02-26T02:03:40;3.93;;;2.67;;
70122;SDS011;57489;37.404;24.920;2024-02-26T02:08:45;3.70;;;2.75;;
70122;SDS011;57489;37.404;24.920;2024-02-26T02:13:47;5.43;;;1.97;;
70122;SDS011;57489;37.404;24.920;2024-02-26T02:18:49;2.22;;;1.50;;
70122;SDS011;57489;37.404;24.920;2024-02-26T02:23:52;3.63;;;2.53;;
70122;SDS011;57489;37.404;24.920;2024-02-26T02:28:54;7.17;;;3.07;;
70122;SDS011;57489;37.404;24.920;2024-02-26T02:33:57;3.58;;;2.00;;
70122;SDS011;57489;37.404;24.920;2024-02-26T02:39:01;4.63;;;2.87;;
70122;SDS011;57489;37.404;24.920;2024-02-26T02:44:03;2.80;;;1.52;;
70122;SDS011;57489;37.404;24.920;2024-02-26T02:49:07;2.22;;;1.50;;
70122;SDS011;57489;37.404;24.920;2024-02-26T02:54:12;2.30;;;1.57;;
70122;SDS011;57489;37.404;24.920;2024-02-26T02:59:14;8.70;;;2.80;;
70122;SDS011;57489;37.404;24.920;2024-02-26T03:04:17;5.20;;;2.75;;
70122;SDS011;57489;37.404;24.920;2024-02-26T03:09:20;5.03;;;3.00;;
70122;SDS011;57489;37.404;24.920;2024-02-26T03:14:23;5.30;;;2.15;;
70122;SDS011;57489;37.404;24.920;2024-02-26T03:19:25;3.90;;;2.57;;
70122;SDS011;57489;37.404;24.920;2024-02-26T03:24:29;10.50;;;2.73;;
70122;SDS011;57489;37.404;24.920;2024-02-26T03:29:31;4.38;;;2.42;;
70122;SDS011;57489;37.404;24.920;2024-02-26T03:34:33;3.43;;;2.27;;
70122;SDS011;57489;37.404;24.920;2024-02-26T03:39:36;1.90;;;1.50;;
70122;SDS011;57489;37.404;24.920;2024-02-26T03:44:39;4.68;;;2.55;;
70122;SDS011;57489;37.404;24.920;2024-02-26T03:49:41;3.63;;;2.37;;
70122;SDS011;57489;37.404;24.920;2024-02-26T03:54:45;2.33;;;1.60;;
70122;SDS011;57489;37.404;24.920;2024-02-26T03:59:47;3.03;;;2.05;;
70122;SDS011;57489;37.404;24.920;2024-02-26T04:04:48;4.77;;;2.27;;
70122;SDS011;57489;37.404;24.920;2024-02-26T04:09:52;2.10;;;1.42;;
70122;SDS011;57489;37.404;24.920;2024-02-26T04:14:53;3.20;;;1.70;;
70122;SDS011;57489;37.404;24.920;2024-02-26T04:19:55;2.37;;;1.80;;
70122;SDS011;57489;37.404;24.920;2024-02-26T04:24:59;2.83;;;1.65;;
70122;SDS011;57489;37.404;24.920;2024-02-26T04:30:01;3.95;;;1.92;;
70122;SDS011;57489;37.404;24.920;2024-02-26T04:35:04;10.80;;;1.80;;
70122;SDS011;57489;37.404;24.920;2024-02-26T04:40:08;2.72;;;1.85;;
70122;SDS011;57489;37.404;24.920;2024-02-26T04:45:11;2.53;;;1.53;;
70122;SDS011;57489;37.404;24.920;2024-02-26T04:50:13;9.90;;;2.23;;
70122;SDS011;57489;37.404;24.920;2024-02-26T04:55:16;2.53;;;1.88;;
70122;SDS011;57489;37.404;24.920;2024-02-26T05:00:18;2.00;;;1.50;;
70122;SDS011;57489;37.404;24.920;2024-02-26T05:05:20;2.10;;;1.47;;
70122;SDS011;57489;37.404;24.920;2024-02-26T05:10:23;11.45;;;2.28;;
70122;SDS011;57489;37.404;24.920;2024-02-26T05:15:25;2.20;;;1.47;;
70122;SDS011;57489;37.404;24.920;2024-02-26T05:20:27;2.80;;;1.77;;
70122;SDS011;57489;37.404;24.920;2024-02-26T05:25:31;4.05;;;2.03;;
70122;SDS011;57489;37.404;24.920;2024-02-26T05:30:33;1.90;;;1.40;;
70122;SDS011;57489;37.404;24.920;2024-02-26T05:35:35;4.60;;;1.80;;
70122;SDS011;57489;37.404;24.920;2024-02-26T05:40:38;4.18;;;2.70;;
70122;SDS011;57489;37.404;24.920;2024-02-26T05:45:40;3.47;;;1.97;;
70122;SDS011;57489;37.404;24.920;2024-02-26T05:50:42;2.50;;;1.57;;
70122;SDS011;57489;37.404;24.920;2024-02-26T05:55:45;4.93;;;2.85;;
70122;SDS011;57489;37.404;24.920;2024-02-26T06:00:47;2.33;;;1.53;;
70122;SDS011;57489;37.404;24.920;2024-02-26T06:05:49;2.73;;;1.90;;
70122;SDS011;57489;37.404;24.920;2024-02-26T06:10:52;10.45;;;2.78;;
70122;SDS011;57489;37.404;24.920;2024-02-26T06:15:54;3.93;;;1.87;;
70122;SDS011;57489;37.404;24.920;2024-02-26T06:20:56;3.22;;;1.63;;
70122;SDS011;57489;37.404;24.920;2024-02-26T06:25:59;2.38;;;1.80;;
70122;SDS011;57489;37.404;24.920;2024-02-26T06:31:01;6.20;;;2.60;;
70122;SDS011;57489;37.404;24.920;2024-02-26T06:36:04;5.38;;;2.63;;
70122;SDS011;57489;37.404;24.920;2024-02-26T06:41:07;5.40;;;2.65;;
70122;SDS011;57489;37.404;24.920;2024-02-26T06:46:11;5.70;;;2.47;;
70122;SDS011;57489;37.404;24.920;2024-02-26T06:51:13;8.65;;;3.42;;
70122;SDS011;57489;37.404;24.920;2024-02-26T06:56:17;4.77;;;3.07;;
70122;SDS011;57489;37.404;24.920;2024-02-26T07:01:19;3.43;;;2.00;;
70122;SDS011;57489;37.404;24.920;2024-02-26T07:06:21;4.50;;;2.67;;
70122;SDS011;57489;37.404;24.920;2024-02-26T07:11:24;6.40;;;2.67;;
70122;SDS011;57489;37.404;24.920;2024-02-26T07:16:26;8.60;;;2.67;;
70122;SDS011;57489;37.404;24.920;2024-02-26T07:21:28;11.05;;;4.07;;
70122;SDS011;57489;37.404;24.920;2024-02-26T07:26:32;5.10;;;3.17;;
70122;SDS011;57489;37.404;24.920;2024-02-26T07:31:34;4.40;;;2.93;;
70122;SDS011;57489;37.404;24.920;2024-02-26T07:36:35;9.05;;;2.83;;
70122;SDS011;57489;37.404;24.920;2024-02-26T07:41:39;4.93;;;2.17;;
70122;SDS011;57489;37.404;24.920;2024-02-26T07:46:41;4.10;;;2.03;;
70122;SDS011;57489;37.404;24.920;2024-02-26T07:51:45;4.47;;;2.10;;
70122;SDS011;57489;37.404;24.920;2024-02-26T07:56:48;5.13;;;2.70;;
70122;SDS011;57489;37.404;24.920;2024-02-26T08:01:50;12.20;;;2.53;;
70122;SDS011;57489;37.404;24.920;2024-02-26T08:06:52;4.93;;;2.78;;
70122;SDS011;57489;37.404;24.920;2024-02-26T08:11:56;5.17;;;2.00;;
70122;SDS011;57489;37.404;24.920;2024-02-26T08:16:58;8.70;;;2.27;;
70122;SDS011;57489;37.404;24.920;2024-02-26T08:22:00;7.22;;;2.08;;
70122;SDS011;57489;37.404;24.920;2024-02-26T08:27:03;4.30;;;2.00;;
70122;SDS011;57489;37.404;24.920;2024-02-26T08:32:06;3.83;;;1.63;;
70122;SDS011;57489;37.404;24.920;2024-02-26T08:37:08;2.97;;;2.08;;
70122;SDS011;57489;37.404;24.920;2024-02-26T08:42:11;5.40;;;2.23;;
70122;SDS011;57489;37.404;24.920;2024-02-26T08:47:13;2.27;;;1.37;;
70122;SDS011;57489;37.404;24.920;2024-02-26T08:52:15;2.95;;;1.50;;
70122;SDS011;57489;37.404;24.920;2024-02-26T08:57:19;4.53;;;1.53;;
70122;SDS011;57489;37.404;24.920;2024-02-26T09:02:20;6.20;;;1.37;;
70122;SDS011;57489;37.404;24.920;2024-02-26T09:07:22;15.55;;;1.70;;
70122;SDS011;57489;37.404;24.920;2024-02-26T09:12:26;2.57;;;1.23;;
70122;SDS011;57489;37.404;24.920;2024-02-26T09:17:28;2.73;;;1.90;;
70122;SDS011;57489;37.404;24.920;2024-02-26T09:22:31;14.75;;;2.42;;
70122;SDS011;57489;37.404;24.920;2024-02-26T09:27:34;4.90;;;2.67;;
70122;SDS011;57489;37.404;24.920;2024-02-26T09:32:37;3.70;;;1.73;;
70122;SDS011;57489;37.404;24.920;2024-02-26T09:37:39;3.33;;;1.70;;
70122;SDS011;57489;37.404;24.920;2024-02-26T09:42:43;4.05;;;1.30;;
70122;SDS011;57489;37.404;24.920;2024-02-26T09:47:46;11.10;;;1.77;;
70122;SDS011;57489;37.404;24.920;2024-02-26T09:52:50;2.97;;;2.13;;
70122;SDS011;57489;37.404;24.920;2024-02-26T09:57:54;2.03;;;1.57;;
70122;SDS011;57489;37.404;24.920;2024-02-26T10:02:58;2.70;;;1.80;;
70122;SDS011;57489;37.404;24.920;2024-02-26T10:08:04;7.80;;;2.17;;
70122;SDS011;57489;37.404;24.920;2024-02-26T10:13:07;4.70;;;2.17;;
70122;SDS011;57489;37.404;24.920;2024-02-26T10:18:11;2.13;;;1.37;;
70122;SDS011;57489;37.404;24.920;2024-02-26T10:23:13;1.90;;;1.42;;
70122;SDS011;57489;37.404;24.920;2024-02-26T10:28:17;4.63;;;2.07;;
70122;SDS011;57489;37.404;24.920;2024-02-26T10:33:19;2.17;;;1.57;;
70122;SDS011;57489;37.404;24.920;2024-02-26T10:38:21;5.90;;;0.95;;
70122;SDS011;57489;37.404;24.920;2024-02-26T10:43:26;2.90;;;1.27;;
70122;SDS011;57489;37.404;24.920;2024-02-26T10:48:28;4.23;;;2.03;;
70122;SDS011;57489;37.404;24.920;2024-02-26T10:53:30;11.20;;;1.80;;
70122;SDS011;57489;37.404;24.920;2024-02-26T10:58:36;7.40;;;2.80;;
70122;SDS011;57489;37.404;24.920;2024-02-26T11:03:38;2.77;;;1.40;;
70122;SDS011;57489;37.404;24.920;2024-02-26T11:08:41;7.53;;;2.08;;
70122;SDS011;57489;37.404;24.920;2024-02-26T11:13:45;2.10;;;1.40;;
70122;SDS011;57489;37.404;24.920;2024-02-26T11:18:50;1.80;;;1.17;;
70122;SDS011;57489;37.404;24.920;2024-02-26T11:23:55;8.20;;;1.88;;
70122;SDS011;57489;37.404;24.920;2024-02-26T11:28:59;2.00;;;1.50;;
70122;SDS011;57489;37.404;24.920;2024-02-26T11:34:01;2.93;;;1.63;;
70122;SDS011;57489;37.404;24.920;2024-02-26T11:39:04;12.57;;;1.55;;
70122;SDS011;57489;37.404;24.920;2024-02-26T11:44:09;3.37;;;1.27;;
70122;SDS011;57489;37.404;24.920;2024-02-26T11:54:38;2.08;;;1.20;;
70122;SDS011;57489;37.404;24.920;2024-02-26T11:59:48;1.40;;;1.03;;
70122;SDS011;57489;37.404;24.920;2024-02-26T12:04:51;3.73;;;1.37;;
70122;SDS011;57489;37.404;24.920;2024-02-26T12:15:17;3.97;;;1.77;;
70122;SDS011;57489;37.404;24.920;2024-02-26T12:20:21;1.37;;;0.93;;
70122;SDS011;57489;37.404;24.920;2024-02-26T12:25:24;2.47;;;1.95;;
70122;SDS011;57489;37.404;24.920;2024-02-26T12:30:28;3.30;;;1.73;;
70122;SDS011;57489;37.404;24.920;2024-02-26T12:35:32;1.53;;;1.07;;
70122;SDS011;57489;37.404;24.920;2024-02-26T12:40:34;2.10;;;1.42;;
70122;SDS011;57489;37.404;24.920;2024-02-26T12:45:37;2.87;;;1.27;;
70122;SDS011;57489;37.404;24.920;2024-02-26T12:50:44;3.87;;;1.87;;
70122;SDS011;57489;37.404;24.920;2024-02-26T12:55:47;2.78;;;1.75;;
70122;SDS011;57489;37.404;24.920;2024-02-26T13:00:51;2.00;;;1.53;;
70122;SDS011;57489;37.404;24.920;2024-02-26T13:05:54;1.57;;;0.97;;
70122;SDS011;57489;37.404;24.920;2024-02-26T13:10:56;3.05;;;1.42;;
70122;SDS011;57489;37.404;24.920;2024-02-26T13:16:03;3.83;;;1.70;;
70122;SDS011;57489;37.404;24.920;2024-02-26T13:21:08;1.70;;;1.23;;
70122;SDS011;57489;37.404;24.920;2024-02-26T13:26:11;2.50;;;1.45;;
70122;SDS011;57489;37.404;24.920;2024-02-26T13:31:16;2.57;;;1.80;;
70122;SDS011;57489;37.404;24.920;2024-02-26T13:36:18;2.33;;;1.20;;
70122;SDS011;57489;37.404;24.920;2024-02-26T13:41:20;1.67;;;1.23;;
70122;SDS011;57489;37.404;24.920;2024-02-26T13:46:24;1.50;;;1.10;;
70122;SDS011;57489;37.404;24.920;2024-02-26T13:51:26;3.30;;;1.40;;
70122;SDS011;57489;37.404;24.920;2024-02-26T13:56:35;2.50;;;1.13;;
70122;SDS011;57489;37.404;24.920;2024-02-26T14:01:40;1.23;;;0.80;;
70122;SDS011;57489;37.404;24.920;2024-02-26T14:06:42;1.50;;;1.00;;
70122;SDS011;57489;37.404;24.920;2024-02-26T14:11:44;1.15;;;0.75;;
70122;SDS011;57489;37.404;24.920;2024-02-26T14:16:48;1.30;;;0.80;;
70122;SDS011;57489;37.404;24.920;2024-02-26T14:21:50;1.80;;;1.20;;
70122;SDS011;57489;37.404;24.920;2024-02-26T14:26:51;1.80;;;1.30;;
70122;SDS011;57489;37.404;24.920;2024-02-26T14:31:55;1.60;;;1.17;;
70122;SDS011;57489;37.404;24.920;2024-02-26T14:36:57;4.37;;;2.03;;
70122;SDS011;57489;37.404;24.920;2024-02-26T14:41:59;2.15;;;1.48;;
70122;SDS011;57489;37.404;24.920;2024-02-26T14:47:04;1.80;;;1.30;;
70122;SDS011;57489;37.404;24.920;2024-02-26T14:52:06;1.27;;;0.70;;
70122;SDS011;57489;37.404;24.920;2024-02-26T14:57:08;1.65;;;0.90;;
70122;SDS011;57489;37.404;24.920;2024-02-26T15:02:11;9.43;;;1.37;;
70122;SDS011;57489;37.404;24.920;2024-02-26T15:07:13;1.17;;;0.70;;
70122;SDS011;57489;37.404;24.920;2024-02-26T15:12:15;1.45;;;1.00;;
70122;SDS011;57489;37.404;24.920;2024-02-26T15:17:22;1.50;;;0.97;;
70122;SDS011;57489;37.404;24.920;2024-02-26T15:22:24;1.57;;;1.10;;
70122;SDS011;57489;37.404;24.920;2024-02-26T15:27:26;2.30;;;1.25;;
70122;SDS011;57489;37.404;24.920;2024-02-26T15:32:30;1.60;;;1.23;;
70122;SDS011;57489;37.404;24.920;2024-02-26T15:37:32;2.40;;;1.40;;
70122;SDS011;57489;37.404;24.920;2024-02-26T15:42:34;1.52;;;1.10;;
70122;SDS011;57489;37.404;24.920;2024-02-26T15:47:37;1.57;;;1.13;;
70122;SDS011;57489;37.404;24.920;2024-02-26T15:52:39;1.27;;;0.87;;
70122;SDS011;57489;37.404;24.920;2024-02-26T15:57:41;1.48;;;1.00;;
70122;SDS011;57489;37.404;24.920;2024-02-26T16:02:46;1.20;;;0.80;;
70122;SDS011;57489;37.404;24.920;2024-02-26T16:07:50;1.30;;;0.80;;
70122;SDS011;57489;37.404;24.920;2024-02-26T16:12:57;1.80;;;1.05;;
70122;SDS011;57489;37.404;24.920;2024-02-26T16:18:03;2.60;;;2.03;;
70122;SDS011;57489;37.404;24.920;2024-02-26T16:23:05;1.30;;;0.83;;
70122;SDS011;57489;37.404;24.920;2024-02-26T16:28:08;2.47;;;1.15;;
70122;SDS011;57489;37.404;24.920;2024-02-26T16:33:11;1.93;;;1.17;;
70122;SDS011;57489;37.404;24.920;2024-02-26T16:38:13;3.53;;;1.50;;
70122;SDS011;57489;37.404;24.920;2024-02-26T16:43:15;2.17;;;1.25;;
70122;SDS011;57489;37.404;24.920;2024-02-26T16:48:18;2.03;;;1.47;;
70122;SDS011;57489;37.404;24.920;2024-02-26T16:53:20;2.25;;;1.63;;
70122;SDS011;57489;37.404;24.920;2024-02-26T16:58:22;4.53;;;1.20;;
70122;SDS011;57489;37.404;24.920;2024-02-26T17:03:26;1.97;;;1.30;;
70122;SDS011;57489;37.404;24.920;2024-02-26T17:08:28;3.25;;;2.00;;
70122;SDS011;57489;37.404;24.920;2024-02-26T17:13:33;2.78;;;1.92;;
70122;SDS011;57489;37.404;24.920;2024-02-26T17:18:37;5.87;;;1.83;;
70122;SDS011;57489;37.404;24.920;2024-02-26T17:23:39;1.80;;;1.10;;
70122;SDS011;57489;37.404;24.920;2024-02-26T17:28:41;2.03;;;1.67;;
70122;SDS011;57489;37.404;24.920;2024-02-26T17:33:44;4.63;;;2.57;;
70122;SDS011;57489;37.404;24.920;2024-02-26T17:38:48;3.88;;;1.77;;
70122;SDS011;57489;37.404;24.920;2024-02-26T17:43:53;5.30;;;2.33;;
70122;SDS011;57489;37.404;24.920;2024-02-26T17:48:57;3.07;;;1.73;;
70122;SDS011;57489;37.404;24.920;2024-02-26T17:53:59;1.80;;;1.10;;
70122;SDS011;57489;37.404;24.920;2024-02-26T17:59:01;1.70;;;1.13;;
70122;SDS011;57489;37.404;24.920;2024-02-26T18:04:04;2.58;;;1.65;;
70122;SDS011;57489;37.404;24.920;2024-02-26T18:09:06;5.47;;;1.90;;
70122;SDS011;57489;37.404;24.920;2024-02-26T18:14:09;1.40;;;0.73;;
70122;SDS011;57489;37.404;24.920;2024-02-26T18:19:12;4.55;;;1.77;;
70122;SDS011;57489;37.404;24.920;2024-02-26T18:24:14;5.38;;;1.67;;
70122;SDS011;57489;37.404;24.920;2024-02-26T18:29:16;2.30;;;1.40;;
70122;SDS011;57489;37.404;24.920;2024-02-26T18:34:19;2.00;;;1.48;;
70122;SDS011;57489;37.404;24.920;2024-02-26T18:39:21;3.05;;;1.60;;
70122;SDS011;57489;37.404;24.920;2024-02-26T18:44:24;11.83;;;1.03;;
70122;SDS011;57489;37.404;24.920;2024-02-26T18:49:28;1.38;;;0.98;;
70122;SDS011;57489;37.404;24.920;2024-02-26T18:54:32;1.88;;;1.27;;
70122;SDS011;57489;37.404;24.920;2024-02-26T18:59:35;2.40;;;1.30;;
70122;SDS011;57489;37.404;24.920;2024-02-26T19:04:38;6.72;;;1.98;;
70122;SDS011;57489;37.404;24.920;2024-02-26T19:09:40;1.75;;;1.02;;
70122;SDS011;57489;37.404;24.920;2024-02-26T19:14:42;2.13;;;1.43;;
70122;SDS011;57489;37.404;24.920;2024-02-26T19:19:46;2.92;;;1.67;;
70122;SDS011;57489;37.404;24.920;2024-02-26T19:24:48;5.30;;;1.88;;
70122;SDS011;57489;37.404;24.920;2024-02-26T19:29:51;1.40;;;0.93;;
70122;SDS011;57489;37.404;24.920;2024-02-26T19:34:54;2.88;;;1.20;;
70122;SDS011;57489;37.404;24.920;2024-02-26T19:39:57;2.90;;;1.30;;
70122;SDS011;57489;37.404;24.920;2024-02-26T19:44:59;3.37;;;1.80;;
70122;SDS011;57489;37.404;24.920;2024-02-26T19:50:03;1.38;;;0.88;;
70122;SDS011;57489;37.404;24.920;2024-02-26T19:55:06;2.13;;;1.20;;
70122;SDS011;57489;37.404;24.920;2024-02-26T20:00:09;3.50;;;1.73;;
70122;SDS011;57489;37.404;24.920;2024-02-26T20:05:12;2.40;;;1.42;;
70122;SDS011;57489;37.404;24.920;2024-02-26T20:10:14;1.53;;;0.97;;
70122;SDS011;57489;37.404;24.920;2024-02-26T20:15:16;7.23;;;2.20;;
70122;SDS011;57489;37.404;24.920;2024-02-26T20:20:20;7.63;;;1.02;;
70122;SDS011;57489;37.404;24.920;2024-02-26T20:25:26;2.90;;;1.90;;
70122;SDS011;57489;37.404;24.920;2024-02-26T20:30:29;4.37;;;1.27;;
70122;SDS011;57489;37.404;24.920;2024-02-26T20:35:33;14.98;;;2.28;;
70122;SDS011;57489;37.404;24.920;2024-02-26T20:40:34;6.47;;;1.87;;
70122;SDS011;57489;37.404;24.920;2024-02-26T20:45:37;1.70;;;1.20;;
70122;SDS011;57489;37.404;24.920;2024-02-26T20:50:41;3.85;;;2.80;;
70122;SDS011;57489;37.404;24.920;2024-02-26T20:55:43;2.60;;;1.40;;
70122;SDS011;57489;37.404;24.920;2024-02-26T21:00:45;3.80;;;1.20;;
70122;SDS011;57489;37.404;24.920;2024-02-26T21:05:49;5.18;;;1.40;;
70122;SDS011;57489;37.404;24.920;2024-02-26T21:10:51;3.27;;;1.60;;
70122;SDS011;57489;37.404;24.920;2024-02-26T21:15:53;2.90;;;1.93;;
70122;SDS011;57489;37.404;24.920;2024-02-26T21:20:57;2.13;;;1.20;;
70122;SDS011;57489;37.404;24.920;2024-02-26T21:25:58;3.43;;;1.33;;
70122;SDS011;57489;37.404;24.920;2024-02-26T21:31:01;3.10;;;1.47;;
70122;SDS011;57489;37.404;24.920;2024-02-26T21:36:05;8.38;;;1.30;;
70122;SDS011;57489;37.404;24.920;2024-02-26T21:41:07;1.93;;;1.27;;
70122;SDS011;57489;37.404;24.920;2024-02-26T21:46:09;4.57;;;1.20;;
70122;SDS011;57489;37.404;24.920;2024-02-26T21:51:13;2.20;;;1.42;;
70122;SDS011;57489;37.404;24.920;2024-02-26T21:56:15;4.33;;;1.80;;
70122;SDS011;57489;37.404;24.920;2024-02-26T22:01:17;1.70;;;1.20;;
70122;SDS011;57489;37.404;24.920;2024-02-26T22:06:20;6.28;;;1.52;;
70122;SDS011;57489;37.404;24.920;2024-02-26T22:11:22;3.87;;;2.00;;
70122;SDS011;57489;37.404;24.920;2024-02-26T22:16:24;2.20;;;1.07;;
70122;SDS011;57489;37.404;24.920;2024-02-26T22:21:32;8.82;;;1.85;;
70122;SDS011;57489;37.404;24.920;2024-02-26T22:26:35;1.33;;;0.87;;
70122;SDS011;57489;37.404;24.920;2024-02-26T22:31:37;1.50;;;0.90;;
70122;SDS011;57489;37.404;24.920;2024-02-26T22:36:41;2.65;;;1.35;;
70122;SDS011;57489;37.404;24.920;2024-02-26T22:41:43;2.53;;;1.97;;
70122;SDS011;57489;37.404;24.920;2024-02-26T22:46:45;2.60;;;1.40;;
70122;SDS011;57489;37.404;24.920;2024-02-26T22:51:48;5.05;;;2.30;;
70122;SDS011;57489;37.404;24.920;2024-02-26T22:56:54;2.50;;;1.33;;
70122;SDS011;57489;37.404;24.920;2024-02-26T23:01:57;1.87;;;1.10;;
70122;SDS011;57489;37.404;24.920;2024-02-26T23:07:00;4.75;;;1.58;;
70122;SDS011;57489;37.404;24.920;2024-02-26T23:12:02;1.77;;;1.03;;
70122;SDS011;57489;37.404;24.920;2024-02-26T23:17:05;2.43;;;0.90;;
70122;SDS011;57489;37.404;24.920;2024-02-26T23:22:08;2.28;;;1.58;;
70122;SDS011;57489;37.404;24.920;2024-02-26T23:27:10;2.33;;;1.47;;
70122;SDS011;57489;37.404;24.920;2024-02-26T23:32:12;2.10;;;1.40;;
70122;SDS011;57489;37.404;24.920;2024-02-26T23:37:16;1.38;;;0.85;;
70122;SDS011;57489;37.404;24.920;2024-02-26T23:42:18;1.37;;;0.90;;
70122;SDS011;57489;37.404;24.920;2024-02-26T23:47:20;1.77;;;1.15;;
70122;SDS011;57489;37.404;24.920;2024-02-26T23:52:24;1.52;;;1.02;;
70122;SDS011;57489;37.404;24.920;2024-02-26T23:57:26;1.67;;;1.17;;
